Time;durP1;ratioP1;P1;durP2;ratioP2;P2;SDS_P1;SDS_P2;PMS_P1;PMS_P2;Temp;Humidity;BMP_temperature;BMP_pressure;BME280_temperature;BME280_humidity;BME280_pressure;Samples;Min_cycle;Max_cycle;Signal;HPM_P1;HPM_P2
2023/08/24 00:00:14;;;;;;;5.65;3.10;;;;;;;;;;4990053;28;25130;-69
2023/08/24 00:02:40;;;;;;;6.40;3.30;;;;;;;;;;4987435;28;25080;-69
2023/08/24 00:05:06;;;;;;;5.72;3.80;;;;;;;;;;4985343;28;25054;-71
2023/08/24 00:07:32;;;;;;;9.57;3.42;;;;;;;;;;4986653;28;25078;-70
2023/08/24 00:09:58;;;;;;;5.97;2.97;;;;;;;;;;4983510;28;25058;-70
2023/08/24 00:12:25;;;;;;;10.65;4.00;;;;;;;;;;4976911;28;25083;-72
2023/08/24 00:14:52;;;;;;;7.40;2.75;;;;;;;;;;4986945;28;25080;-70
2023/08/24 00:17:18;;;;;;;7.80;3.53;;;;;;;;;;4986349;28;25047;-70
2023/08/24 00:19:44;;;;;;;5.85;3.10;;;;;;;;;;4983736;28;25067;-69
2023/08/24 00:22:10;;;;;;;9.35;3.20;;;;;;;;;;4982311;28;25062;-68
2023/08/24 00:24:36;;;;;;;4.47;3.42;;;;;;;;;;4982028;28;25143;-70
2023/08/24 00:27:10;;;;;;;6.53;3.67;;;;;;;;;;4974859;28;25072;-72
2023/08/24 00:29:36;;;;;;;8.07;4.05;;;;;;;;;;4982783;28;25069;-70
2023/08/24 00:32:03;;;;;;;6.70;4.65;;;;;;;;;;4988381;28;25101;-69
2023/08/24 00:34:29;;;;;;;8.30;4.43;;;;;;;;;;4981541;28;25114;-71
2023/08/24 00:36:55;;;;;;;7.63;3.83;;;;;;;;;;4982517;28;25161;-70
2023/08/24 00:39:21;;;;;;;7.43;4.10;;;;;;;;;;4975803;28;25087;-70
2023/08/24 00:41:47;;;;;;;9.10;3.95;;;;;;;;;;4982362;28;25088;-69
2023/08/24 00:44:13;;;;;;;10.40;5.00;;;;;;;;;;4976326;28;25104;-70
2023/08/24 00:46:39;;;;;;;6.65;4.18;;;;;;;;;;4978936;28;25071;-71
2023/08/24 00:49:05;;;;;;;6.22;4.45;;;;;;;;;;4984118;28;25073;-69
2023/08/24 00:51:31;;;;;;;8.85;4.00;;;;;;;;;;4977857;28;25074;-71
2023/08/24 00:53:57;;;;;;;9.60;4.93;;;;;;;;;;4982372;28;25089;-71
2023/08/24 00:56:24;;;;;;;8.55;4.75;;;;;;;;;;4983957;28;25087;-69
2023/08/24 00:58:50;;;;;;;8.73;4.90;;;;;;;;;;4985215;28;25071;-70
2023/08/24 01:01:18;;;;;;;8.95;5.10;;;;;;;;;;4989136;28;25155;-70
2023/08/24 01:03:44;;;;;;;7.72;4.75;;;;;;;;;;4974848;28;25070;-71
2023/08/24 01:06:10;;;;;;;9.05;4.72;;;;;;;;;;4986193;28;25062;-70
2023/08/24 01:08:37;;;;;;;9.35;5.03;;;;;;;;;;4969368;28;25067;-70
2023/08/24 01:11:07;;;;;;;6.35;4.60;;;;;;;;;;4993125;28;25089;-72
2023/08/24 01:13:43;;;;;;;10.07;5.38;;;;;;;;;;4978636;28;25065;-70
2023/08/24 01:16:13;;;;;;;10.70;5.53;;;;;;;;;;4984011;28;25059;-68
2023/08/24 01:18:40;;;;;;;10.27;5.10;;;;;;;;;;4971486;28;25062;-69
2023/08/24 01:21:06;;;;;;;10.57;5.25;;;;;;;;;;4993587;28;25138;-71
2023/08/24 01:23:49;;;;;;;8.52;5.47;;;;;;;;;;4986785;28;25109;-71
2023/08/24 01:26:18;;;;;;;10.10;5.47;;;;;;;;;;4976333;28;25119;-70
2023/08/24 01:28:45;;;;;;;13.90;6.05;;;;;;;;;;4985055;28;25096;-70
2023/08/24 01:31:11;;;;;;;8.73;5.18;;;;;;;;;;4977791;28;25054;-70
2023/08/24 01:33:37;;;;;;;11.55;5.57;;;;;;;;;;4973653;28;25139;-69
2023/08/24 01:36:03;;;;;;;10.23;6.22;;;;;;;;;;4976428;28;25074;-69
2023/08/24 01:38:30;;;;;;;11.02;5.72;;;;;;;;;;4974038;28;25059;-70
2023/08/24 01:41:08;;;;;;;9.77;5.20;;;;;;;;;;4988258;28;25071;-72
2023/08/24 01:43:36;;;;;;;11.07;6.28;;;;;;;;;;4992651;28;25155;-69
2023/08/24 01:46:05;;;;;;;16.10;6.53;;;;;;;;;;4986257;28;25063;-70
2023/08/24 01:48:32;;;;;;;11.65;6.53;;;;;;;;;;4988362;28;25054;-70
2023/08/24 01:50:58;;;;;;;13.63;6.78;;;;;;;;;;4987756;28;25063;-70
2023/08/24 01:53:26;;;;;;;14.75;6.60;;;;;;;;;;4980186;28;25082;-70
2023/08/24 01:55:53;;;;;;;12.27;7.03;;;;;;;;;;4986174;28;25082;-69
2023/08/24 01:58:19;;;;;;;13.05;7.35;;;;;;;;;;4989447;28;25051;-70
2023/08/24 02:00:45;;;;;;;9.48;7.38;;;;;;;;;;4991640;28;25155;-70
2023/08/24 02:03:11;;;;;;;16.90;7.30;;;;;;;;;;4985373;28;25058;-69
2023/08/24 02:05:37;;;;;;;12.18;7.40;;;;;;;;;;4989323;28;25050;-69
2023/08/24 02:08:03;;;;;;;14.52;6.85;;;;;;;;;;4986187;28;25051;-71
2023/08/24 02:10:29;;;;;;;15.23;8.27;;;;;;;;;;4982082;28;25105;-71
2023/08/24 02:12:55;;;;;;;14.05;7.28;;;;;;;;;;4987595;28;25070;-70
2023/08/24 02:15:22;;;;;;;13.90;7.97;;;;;;;;;;4991712;28;25077;-71
2023/08/24 02:17:48;;;;;;;15.23;7.55;;;;;;;;;;4991932;28;25056;-70
2023/08/24 02:20:15;;;;;;;17.50;8.27;;;;;;;;;;4976882;28;25060;-71
2023/08/24 02:22:41;;;;;;;15.82;9.43;;;;;;;;;;4987602;28;25081;-70
2023/08/24 02:25:07;;;;;;;10.93;8.50;;;;;;;;;;4988270;28;25079;-69
2023/08/24 02:27:34;;;;;;;14.93;8.55;;;;;;;;;;4975343;28;25100;-70
2023/08/24 02:30:00;;;;;;;11.93;7.68;;;;;;;;;;4973331;28;25093;-70
2023/08/24 02:32:26;;;;;;;14.35;8.13;;;;;;;;;;4982144;28;25072;-70
2023/08/24 02:34:52;;;;;;;18.95;8.10;;;;;;;;;;4982540;28;25110;-72
2023/08/24 02:37:18;;;;;;;15.73;9.20;;;;;;;;;;4984143;28;25073;-69
2023/08/24 02:39:44;;;;;;;16.67;9.57;;;;;;;;;;4990972;28;25045;-70
2023/08/24 02:42:10;;;;;;;14.75;9.00;;;;;;;;;;4982078;28;25077;-69
2023/08/24 02:44:36;;;;;;;13.82;8.98;;;;;;;;;;4984517;28;25059;-71
2023/08/24 02:47:02;;;;;;;16.88;9.55;;;;;;;;;;4997394;28;25147;-69
2023/08/24 02:49:28;;;;;;;12.88;9.63;;;;;;;;;;5004195;28;25069;-68
2023/08/24 02:51:54;;;;;;;11.75;8.27;;;;;;;;;;4990908;28;25062;-71
2023/08/24 02:54:20;;;;;;;11.60;8.50;;;;;;;;;;4994966;28;25062;-70
2023/08/24 02:56:46;;;;;;;13.38;9.07;;;;;;;;;;4984760;28;25134;-69
2023/08/24 02:59:12;;;;;;;14.27;9.18;;;;;;;;;;4994394;28;25074;-70
2023/08/24 03:01:40;;;;;;;15.25;9.43;;;;;;;;;;4985320;28;25066;-70
2023/08/24 03:04:06;;;;;;;14.43;9.20;;;;;;;;;;4981972;28;25045;-69
2023/08/24 03:06:33;;;;;;;14.30;8.25;;;;;;;;;;4990609;28;25073;-69
2023/08/24 03:09:00;;;;;;;10.52;8.00;;;;;;;;;;4996019;28;25062;-70
2023/08/24 03:11:26;;;;;;;12.05;7.65;;;;;;;;;;4997390;28;25068;-71
2023/08/24 03:13:52;;;;;;;16.13;8.95;;;;;;;;;;5002443;28;25128;-70
2023/08/24 03:16:18;;;;;;;12.68;9.02;;;;;;;;;;5004791;28;25089;-69
2023/08/24 03:18:44;;;;;;;14.45;9.90;;;;;;;;;;5006054;28;25067;-72
2023/08/24 03:21:10;;;;;;;13.63;8.98;;;;;;;;;;4985589;28;25055;-69
2023/08/24 03:23:36;;;;;;;19.80;9.02;;;;;;;;;;4991593;28;25067;-68
2023/08/24 03:26:03;;;;;;;12.88;8.27;;;;;;;;;;4983881;28;25086;-73
2023/08/24 03:28:29;;;;;;;17.27;9.07;;;;;;;;;;4987239;28;25048;-71
2023/08/24 03:30:55;;;;;;;15.60;9.15;;;;;;;;;;4986035;28;25120;-69
2023/08/24 03:33:22;;;;;;;13.38;9.30;;;;;;;;;;4982392;28;25064;-69
2023/08/24 03:35:49;;;;;;;15.68;8.73;;;;;;;;;;4986163;28;25097;-70
2023/08/24 03:38:15;;;;;;;14.68;9.55;;;;;;;;;;4984283;28;25116;-71
2023/08/24 03:40:41;;;;;;;15.80;9.45;;;;;;;;;;4981318;28;25085;-69
2023/08/24 03:43:07;;;;;;;15.93;8.88;;;;;;;;;;4979677;28;25102;-70
2023/08/24 03:45:33;;;;;;;12.65;9.32;;;;;;;;;;4988738;28;25052;-69
2023/08/24 03:47:59;;;;;;;13.18;9.32;;;;;;;;;;4989410;28;25146;-69
2023/08/24 03:50:26;;;;;;;17.35;9.25;;;;;;;;;;4979930;28;25055;-70
2023/08/24 03:52:52;;;;;;;16.58;10.63;;;;;;;;;;4985072;28;25079;-69
2023/08/24 03:55:18;;;;;;;14.52;10.45;;;;;;;;;;4992815;28;25094;-69
2023/08/24 03:57:45;;;;;;;14.30;10.68;;;;;;;;;;4986130;28;25071;-71
2023/08/24 04:00:11;;;;;;;17.00;10.48;;;;;;;;;;4992150;28;25061;-71
2023/08/24 04:02:43;;;;;;;13.65;10.30;;;;;;;;;;4981581;28;25061;-70
2023/08/24 04:05:09;;;;;;;19.60;10.88;;;;;;;;;;4981895;28;25062;-70
2023/08/24 04:07:37;;;;;;;18.40;10.80;;;;;;;;;;4980973;28;25078;-69
2023/08/24 04:10:07;;;;;;;18.23;11.02;;;;;;;;;;4990179;28;25076;-70
2023/08/24 04:12:33;;;;;;;18.23;10.15;;;;;;;;;;4977659;28;25042;-71
2023/08/24 04:14:59;;;;;;;19.65;10.63;;;;;;;;;;4982610;28;25058;-70
2023/08/24 04:17:26;;;;;;;19.17;10.85;;;;;;;;;;5004784;22;25043;-73
2023/08/24 04:19:52;;;;;;;12.88;10.73;;;;;;;;;;5042293;22;25078;-65
2023/08/24 04:22:18;;;;;;;17.52;11.35;;;;;;;;;;5038878;28;25156;-65
2023/08/24 04:24:44;;;;;;;16.02;10.60;;;;;;;;;;5044788;28;25059;-69
2023/08/24 04:27:10;;;;;;;19.48;11.80;;;;;;;;;;5040627;28;25065;-64
2023/08/24 04:29:36;;;;;;;18.17;11.98;;;;;;;;;;5011918;28;25115;-66
2023/08/24 04:32:02;;;;;;;16.15;10.85;;;;;;;;;;5033210;22;24808;-66
2023/08/24 04:34:28;;;;;;;19.65;12.05;;;;;;;;;;5018647;28;25044;-62
2023/08/24 04:36:54;;;;;;;19.08;11.27;;;;;;;;;;5004622;28;25060;-63
2023/08/24 04:39:20;;;;;;;17.90;11.93;;;;;;;;;;5015453;28;25099;-63
2023/08/24 04:41:46;;;;;;;21.75;12.45;;;;;;;;;;5027412;28;25137;-62
2023/08/24 04:44:12;;;;;;;20.30;11.60;;;;;;;;;;5006248;28;25136;-63
2023/08/24 04:46:38;;;;;;;19.83;11.80;;;;;;;;;;5007929;28;25080;-63
2023/08/24 04:49:04;;;;;;;23.58;12.60;;;;;;;;;;5028953;28;25102;-63
2023/08/24 04:51:30;;;;;;;17.65;11.48;;;;;;;;;;5019975;28;25108;-63
2023/08/24 04:53:56;;;;;;;21.33;12.65;;;;;;;;;;5006020;28;25076;-62
2023/08/24 04:56:22;;;;;;;15.65;11.90;;;;;;;;;;5009127;28;25072;-64
2023/08/24 04:58:56;;;;;;;22.15;12.40;;;;;;;;;;5018242;28;25039;-61
2023/08/24 05:01:22;;;;;;;21.15;14.05;;;;;;;;;;5021612;28;25068;-61
2023/08/24 05:03:48;;;;;;;21.20;13.48;;;;;;;;;;5017606;28;25076;-64
2023/08/24 05:06:14;;;;;;;23.23;13.43;;;;;;;;;;5002400;28;25055;-64
2023/08/24 05:08:40;;;;;;;19.98;13.23;;;;;;;;;;5022424;28;25059;-62
2023/08/24 05:11:32;;;;;;;19.15;12.95;;;;;;;;;;5016814;28;25147;-62
2023/08/24 05:13:58;;;;;;;22.60;14.77;;;;;;;;;;5015631;28;25095;-62
2023/08/24 05:16:24;;;;;;;23.48;13.63;;;;;;;;;;5020895;28;25119;-62
2023/08/24 05:18:50;;;;;;;18.13;13.25;;;;;;;;;;5022876;28;25140;-63
2023/08/24 05:21:16;;;;;;;24.15;14.82;;;;;;;;;;5024227;28;25073;-62
2023/08/24 05:23:42;;;;;;;21.80;13.95;;;;;;;;;;5022738;28;25051;-62
2023/08/24 05:26:08;;;;;;;18.85;13.93;;;;;;;;;;5020021;28;25053;-62
2023/08/24 05:28:34;;;;;;;22.00;13.77;;;;;;;;;;5017654;28;25083;-62
2023/08/24 05:31:00;;;;;;;22.40;15.55;;;;;;;;;;5024031;28;25074;-62
2023/08/24 05:33:30;;;;;;;22.85;15.30;;;;;;;;;;5015148;28;25158;-62
2023/08/24 05:35:57;;;;;;;21.88;15.27;;;;;;;;;;5023493;28;25069;-62
2023/08/24 05:38:24;;;;;;;21.65;13.20;;;;;;;;;;5013642;28;25066;-62
2023/08/24 05:40:50;;;;;;;28.70;14.77;;;;;;;;;;5022292;28;25119;-63
2023/08/24 05:43:16;;;;;;;22.17;15.07;;;;;;;;;;5027305;28;25060;-62
2023/08/24 05:45:44;;;;;;;25.25;16.13;;;;;;;;;;5023189;28;25109;-62
2023/08/24 05:48:11;;;;;;;23.25;15.40;;;;;;;;;;5018905;28;25065;-61
2023/08/24 05:50:37;;;;;;;22.25;14.90;;;;;;;;;;5012667;28;25052;-61
2023/08/24 05:53:04;;;;;;;24.10;16.20;;;;;;;;;;5007509;28;25051;-62
2023/08/24 05:55:30;;;;;;;26.67;15.68;;;;;;;;;;5019709;28;25175;-62
2023/08/24 05:57:56;;;;;;;25.67;15.40;;;;;;;;;;5022546;28;25082;-64
2023/08/24 06:00:22;;;;;;;21.10;15.60;;;;;;;;;;5015995;28;25135;-61
2023/08/24 06:02:48;;;;;;;24.85;16.30;;;;;;;;;;5008881;28;25078;-61
2023/08/24 06:05:17;;;;;;;22.45;15.15;;;;;;;;;;5009615;28;25150;-62
2023/08/24 06:07:43;;;;;;;24.85;16.38;;;;;;;;;;5022290;28;25085;-62
2023/08/24 06:10:09;;;;;;;23.45;15.55;;;;;;;;;;5022896;28;25158;-62
2023/08/24 06:12:35;;;;;;;28.08;17.45;;;;;;;;;;5013353;28;25127;-61
2023/08/24 06:15:03;;;;;;;31.77;17.67;;;;;;;;;;4998569;28;25078;-62
2023/08/24 06:17:29;;;;;;;23.00;16.02;;;;;;;;;;5023130;28;25062;-62
2023/08/24 06:19:55;;;;;;;30.52;18.15;;;;;;;;;;5023590;28;25094;-62
2023/08/24 06:22:21;;;;;;;25.77;16.55;;;;;;;;;;5015986;28;25076;-64
2023/08/24 06:24:47;;;;;;;28.70;17.27;;;;;;;;;;5022754;28;25073;-63
2023/08/24 06:27:13;;;;;;;27.40;17.65;;;;;;;;;;5018519;28;25065;-62
2023/08/24 06:29:43;;;;;;;28.65;17.27;;;;;;;;;;5021714;28;25050;-62
2023/08/24 06:32:09;;;;;;;27.60;17.85;;;;;;;;;;5020780;28;25077;-62
2023/08/24 06:34:34;;;;;;;29.60;18.60;;;;;;;;;;5020046;28;25063;-62
2023/08/24 06:37:03;;;;;;;27.65;18.40;;;;;;;;;;5018150;28;25078;-62
2023/08/24 06:39:29;;;;;;;25.50;18.33;;;;;;;;;;5015912;28;25083;-62
2023/08/24 06:41:55;;;;;;;25.15;17.90;;;;;;;;;;5012319;28;25142;-63
2023/08/24 06:44:20;;;;;;;25.48;16.73;;;;;;;;;;4990735;28;25070;-62
2023/08/24 06:46:46;;;;;;;26.48;18.45;;;;;;;;;;5015813;28;25061;-63
2023/08/24 06:49:13;;;;;;;28.98;18.60;;;;;;;;;;5019525;28;25063;-63
2023/08/24 06:51:38;;;;;;;23.02;16.13;;;;;;;;;;5020375;28;25117;-64
2023/08/24 06:54:04;;;;;;;27.10;17.40;;;;;;;;;;5019931;28;25558;-62
2023/08/24 06:56:30;;;;;;;35.45;20.00;;;;;;;;;;5021148;28;25099;-61
2023/08/24 06:58:56;;;;;;;29.73;18.10;;;;;;;;;;5020998;28;25077;-61
2023/08/24 07:01:22;;;;;;;28.15;16.30;;;;;;;;;;4997218;28;25058;-62
2023/08/24 07:03:48;;;;;;;23.92;16.88;;;;;;;;;;5018576;28;25107;-62
2023/08/24 07:06:14;;;;;;;22.88;16.00;;;;;;;;;;5015553;28;25125;-62
2023/08/24 07:08:40;;;;;;;24.02;16.77;;;;;;;;;;5021710;28;25051;-63
2023/08/24 07:11:06;;;;;;;22.50;15.90;;;;;;;;;;5014726;28;25064;-63
2023/08/24 07:13:32;;;;;;;23.48;16.08;;;;;;;;;;5014398;28;25076;-63
2023/08/24 07:15:58;;;;;;;21.17;15.57;;;;;;;;;;5021468;28;25109;-64
2023/08/24 07:18:25;;;;;;;25.85;16.67;;;;;;;;;;5019439;28;25164;-64
2023/08/24 07:20:51;;;;;;;25.30;15.95;;;;;;;;;;5021754;28;25083;-64
2023/08/24 07:23:16;;;;;;;20.05;14.63;;;;;;;;;;5020845;28;25104;-64
2023/08/24 07:25:42;;;;;;;21.33;14.93;;;;;;;;;;5025182;28;25085;-63
2023/08/24 07:28:09;;;;;;;25.48;15.80;;;;;;;;;;5025447;28;25067;-63
2023/08/24 07:30:35;;;;;;;21.90;15.75;;;;;;;;;;5035798;28;25100;-64
2023/08/24 07:33:03;;;;;;;21.38;15.20;;;;;;;;;;5020603;28;25105;-66
2023/08/24 07:35:29;;;;;;;26.13;15.57;;;;;;;;;;5021544;28;25066;-64
2023/08/24 07:37:55;;;;;;;25.42;14.88;;;;;;;;;;5019654;28;25223;-64
2023/08/24 07:40:21;;;;;;;20.67;14.98;;;;;;;;;;5014781;28;25075;-63
2023/08/24 07:42:48;;;;;;;21.60;14.75;;;;;;;;;;5023269;28;25050;-64
2023/08/24 07:45:14;;;;;;;23.15;14.32;;;;;;;;;;5005095;28;25070;-64
2023/08/24 07:47:40;;;;;;;19.05;14.63;;;;;;;;;;5023066;28;25076;-64
2023/08/24 07:50:07;;;;;;;22.38;15.02;;;;;;;;;;5022346;28;25085;-64
2023/08/24 07:52:33;;;;;;;22.48;14.93;;;;;;;;;;5023761;28;25075;-66
2023/08/24 07:55:00;;;;;;;21.00;14.95;;;;;;;;;;5020432;28;25146;-65
2023/08/24 07:57:26;;;;;;;21.58;13.52;;;;;;;;;;5020079;28;25119;-65
2023/08/24 07:59:52;;;;;;;17.75;14.05;;;;;;;;;;5023537;28;25102;-64
2023/08/24 08:02:19;;;;;;;21.15;13.93;;;;;;;;;;5018824;28;25093;-64
2023/08/24 08:04:45;;;;;;;22.92;15.43;;;;;;;;;;5019976;28;25089;-63
2023/08/24 08:07:11;;;;;;;23.90;15.75;;;;;;;;;;5017608;28;25161;-64
2023/08/24 08:09:37;;;;;;;18.48;14.20;;;;;;;;;;5021323;28;25090;-63
2023/08/24 08:12:03;;;;;;;22.10;14.30;;;;;;;;;;5018442;28;25075;-66
2023/08/24 08:14:29;;;;;;;21.77;13.98;;;;;;;;;;4997992;28;25134;-65
2023/08/24 08:16:56;;;;;;;34.38;17.50;;;;;;;;;;5015761;28;25076;-63
2023/08/24 08:19:25;;;;;;;24.13;16.45;;;;;;;;;;5017911;28;25064;-64
2023/08/24 08:21:50;;;;;;;21.15;14.73;;;;;;;;;;5020858;28;25058;-63
2023/08/24 08:24:16;;;;;;;20.23;15.13;;;;;;;;;;5016918;28;25052;-63
2023/08/24 08:26:42;;;;;;;21.25;13.80;;;;;;;;;;5022765;28;25153;-64
2023/08/24 08:29:08;;;;;;;22.67;14.35;;;;;;;;;;5016006;28;25058;-63
2023/08/24 08:31:34;;;;;;;20.58;14.25;;;;;;;;;;5020104;28;25063;-64
2023/08/24 08:34:00;;;;;;;23.88;14.43;;;;;;;;;;5022542;28;25081;-63
2023/08/24 08:36:26;;;;;;;23.42;14.98;;;;;;;;;;5019429;28;25132;-65
2023/08/24 08:38:52;;;;;;;22.63;14.40;;;;;;;;;;5015543;28;25066;-64
2023/08/24 08:41:22;;;;;;;23.48;13.65;;;;;;;;;;5021803;28;25140;-62
2023/08/24 08:43:49;;;;;;;24.25;15.20;;;;;;;;;;5022906;28;25164;-63
2023/08/24 08:46:16;;;;;;;21.27;14.15;;;;;;;;;;5020680;28;25079;-63
2023/08/24 08:48:42;;;;;;;20.45;13.20;;;;;;;;;;5019756;28;25108;-64
2023/08/24 08:51:09;;;;;;;19.23;14.70;;;;;;;;;;5018663;28;25047;-65
2023/08/24 08:53:35;;;;;;;24.75;15.68;;;;;;;;;;5014877;28;25110;-63
2023/08/24 08:56:04;;;;;;;20.45;13.98;;;;;;;;;;5014886;28;25090;-61
2023/08/24 08:58:31;;;;;;;22.77;14.77;;;;;;;;;;5020794;28;25052;-63
2023/08/24 09:00:59;;;;;;;21.00;14.15;;;;;;;;;;5024772;28;25075;-63
2023/08/24 09:03:26;;;;;;;22.20;14.20;;;;;;;;;;5020261;28;25276;-62
2023/08/24 09:05:52;;;;;;;18.95;13.27;;;;;;;;;;5023818;28;25080;-64
2023/08/24 09:08:19;;;;;;;18.08;13.80;;;;;;;;;;5018766;28;25128;-64
2023/08/24 09:10:45;;;;;;;25.38;14.45;;;;;;;;;;5016276;28;25107;-62
2023/08/24 09:13:12;;;;;;;22.25;14.65;;;;;;;;;;5016993;28;25137;-64
2023/08/24 09:15:38;;;;;;;25.65;15.20;;;;;;;;;;5020430;28;25098;-64
2023/08/24 09:18:04;;;;;;;20.55;13.95;;;;;;;;;;5017653;28;25086;-66
2023/08/24 09:20:30;;;;;;;20.25;13.95;;;;;;;;;;5023614;28;25064;-62
2023/08/24 09:22:59;;;;;;;20.17;13.25;;;;;;;;;;5021725;28;25071;-63
2023/08/24 09:25:25;;;;;;;19.92;13.18;;;;;;;;;;5020562;28;25122;-64
2023/08/24 09:28:01;;;;;;;28.08;13.13;;;;;;;;;;5022233;28;25197;-65
2023/08/24 09:30:35;;;;;;;20.67;14.75;;;;;;;;;;5016641;28;25063;-63
2023/08/24 09:33:02;;;;;;;20.98;13.00;;;;;;;;;;5020143;28;25070;-63
2023/08/24 09:35:28;;;;;;;22.20;14.55;;;;;;;;;;5020045;28;25143;-63
2023/08/24 09:37:54;;;;;;;24.15;15.05;;;;;;;;;;5021831;28;25072;-64
2023/08/24 09:40:25;;;;;;;23.48;14.60;;;;;;;;;;5022184;28;25078;-65
2023/08/24 09:42:51;;;;;;;19.40;14.15;;;;;;;;;;5021126;28;25075;-64
2023/08/24 09:45:17;;;;;;;22.92;14.90;;;;;;;;;;5022661;28;25054;-64
2023/08/24 09:47:50;;;;;;;18.40;13.43;;;;;;;;;;5020367;28;25051;-65
2023/08/24 09:50:16;;;;;;;23.08;15.00;;;;;;;;;;5022209;28;25142;-66
2023/08/24 09:52:43;;;;;;;22.48;15.00;;;;;;;;;;5016581;28;25054;-64
2023/08/24 09:55:09;;;;;;;22.20;14.43;;;;;;;;;;5022604;28;25097;-63
2023/08/24 09:57:37;;;;;;;22.55;13.57;;;;;;;;;;5013774;28;25058;-64
2023/08/24 10:00:10;;;;;;;20.00;13.80;;;;;;;;;;5022693;28;25060;-65
2023/08/24 10:02:36;;;;;;;19.38;14.18;;;;;;;;;;5017670;28;25062;-64
2023/08/24 10:05:03;;;;;;;15.65;13.00;;;;;;;;;;5019931;28;25063;-65
2023/08/24 10:07:30;;;;;;;17.17;13.30;;;;;;;;;;5020669;28;25166;-63
2023/08/24 10:10:03;;;;;;;19.42;13.40;;;;;;;;;;5022843;28;25135;-62
2023/08/24 10:12:32;;;;;;;16.83;13.02;;;;;;;;;;5020227;28;25154;-63
2023/08/24 10:15:03;;;;;;;21.75;14.27;;;;;;;;;;5029859;28;25057;-64
2023/08/24 10:17:30;;;;;;;21.48;14.02;;;;;;;;;;5020442;28;25125;-64
2023/08/24 10:19:56;;;;;;;25.98;14.55;;;;;;;;;;5022560;28;25145;-63
2023/08/24 10:22:22;;;;;;;16.83;12.90;;;;;;;;;;5018369;28;25067;-62
2023/08/24 10:24:48;;;;;;;19.95;12.55;;;;;;;;;;5019577;28;25058;-63
2023/08/24 10:27:15;;;;;;;18.83;13.48;;;;;;;;;;5019669;28;25079;-65
2023/08/24 10:29:40;;;;;;;17.52;14.60;;;;;;;;;;5024696;28;25108;-63
2023/08/24 10:32:08;;;;;;;20.05;13.95;;;;;;;;;;5040445;22;25058;-66
2023/08/24 10:34:34;;;;;;;24.35;15.25;;;;;;;;;;5029135;28;25052;-64
2023/08/24 10:37:10;;;;;;;21.15;14.10;;;;;;;;;;5022812;28;25072;-66
2023/08/24 10:39:40;;;;;;;20.48;14.93;;;;;;;;;;5023165;28;25059;-66
2023/08/24 10:42:10;;;;;;;21.17;14.57;;;;;;;;;;5018326;28;25143;-66
2023/08/24 10:44:37;;;;;;;17.83;14.43;;;;;;;;;;5022762;28;25064;-65
2023/08/24 10:47:07;;;;;;;21.92;14.50;;;;;;;;;;5031087;28;25063;-65
2023/08/24 10:49:33;;;;;;;21.33;15.02;;;;;;;;;;5028382;28;25134;-64
2023/08/24 10:52:17;;;;;;;22.55;14.60;;;;;;;;;;5032851;28;25059;-66
2023/08/24 10:54:45;;;;;;;20.05;14.88;;;;;;;;;;5023446;28;25147;-65
2023/08/24 10:57:18;;;;;;;20.35;15.27;;;;;;;;;;5029510;28;25079;-66
2023/08/24 10:59:44;;;;;;;23.08;15.95;;;;;;;;;;5041016;28;25070;-65
2023/08/24 11:02:18;;;;;;;17.52;14.48;;;;;;;;;;5049549;28;25047;-66
2023/08/24 11:05:04;;;;;;;20.70;15.23;;;;;;;;;;5035047;28;25052;-65
2023/08/24 11:07:30;;;;;;;26.98;15.35;;;;;;;;;;5037320;28;25157;-65
2023/08/24 11:09:56;;;;;;;26.35;16.13;;;;;;;;;;5032773;28;25181;-66
2023/08/24 11:12:22;;;;;;;24.52;16.55;;;;;;;;;;5040603;28;25103;-65
2023/08/24 11:14:54;;;;;;;16.80;13.80;;;;;;;;;;5026277;28;25073;-64
2023/08/24 11:17:21;;;;;;;28.48;16.80;;;;;;;;;;5025987;28;25050;-64
2023/08/24 11:19:56;;;;;;;23.20;14.40;;;;;;;;;;5028383;28;25119;-63
2023/08/24 11:22:23;;;;;;;24.67;15.63;;;;;;;;;;5021666;28;25083;-63
2023/08/24 11:24:49;;;;;;;23.50;14.93;;;;;;;;;;5034963;28;25061;-64
2023/08/24 11:27:16;;;;;;;19.45;14.60;;;;;;;;;;5034609;28;25150;-64
2023/08/24 11:29:42;;;;;;;21.73;14.02;;;;;;;;;;5028622;28;25077;-64
2023/08/24 11:32:08;;;;;;;21.27;13.73;;;;;;;;;;5030419;28;25058;-67
2023/08/24 11:34:38;;;;;;;19.55;14.65;;;;;;;;;;5035800;28;25086;-66
2023/08/24 11:37:04;;;;;;;21.55;15.02;;;;;;;;;;5021605;28;25149;-64
2023/08/24 11:39:33;;;;;;;16.70;13.82;;;;;;;;;;5025181;28;25113;-64
2023/08/24 11:42:03;;;;;;;18.77;13.50;;;;;;;;;;5035914;28;25073;-65
2023/08/24 11:44:30;;;;;;;19.10;13.38;;;;;;;;;;5031038;28;25073;-65
2023/08/24 11:46:59;;;;;;;16.50;13.05;;;;;;;;;;5028440;28;25062;-65
2023/08/24 11:49:25;;;;;;;21.80;12.82;;;;;;;;;;5030601;28;25055;-63
2023/08/24 11:51:51;;;;;;;25.50;13.45;;;;;;;;;;5038419;28;25061;-64
2023/08/24 11:54:21;;;;;;;20.20;13.18;;;;;;;;;;5029403;28;25090;-65
2023/08/24 11:56:47;;;;;;;21.55;14.25;;;;;;;;;;5026221;28;25148;-64
2023/08/24 11:59:13;;;;;;;19.85;14.88;;;;;;;;;;5034413;28;25061;-65
2023/08/24 12:01:40;;;;;;;18.55;13.52;;;;;;;;;;5031757;28;25115;-64
2023/08/24 12:04:06;;;;;;;25.05;14.65;;;;;;;;;;5028190;28;25076;-65
2023/08/24 12:06:32;;;;;;;19.05;14.00;;;;;;;;;;5031150;28;25053;-64
2023/08/24 12:08:58;;;;;;;20.23;13.52;;;;;;;;;;5030259;28;25133;-65
2023/08/24 12:11:26;;;;;;;19.55;13.07;;;;;;;;;;5036782;28;25161;-64
2023/08/24 12:13:53;;;;;;;20.60;13.50;;;;;;;;;;5020571;28;25061;-64
2023/08/24 12:16:19;;;;;;;17.40;12.23;;;;;;;;;;5034994;28;25160;-64
2023/08/24 12:18:51;;;;;;;19.92;12.10;;;;;;;;;;5021688;28;25091;-64
2023/08/24 12:21:17;;;;;;;17.08;12.57;;;;;;;;;;5026621;28;25139;-66
2023/08/24 12:23:43;;;;;;;21.77;13.95;;;;;;;;;;5018278;28;25138;-65
2023/08/24 12:26:17;;;;;;;18.02;12.82;;;;;;;;;;5033734;28;25114;-64
2023/08/24 12:28:43;;;;;;;16.88;11.05;;;;;;;;;;5026623;28;25074;-64
2023/08/24 12:31:09;;;;;;;24.77;13.25;;;;;;;;;;5027848;28;25111;-64
2023/08/24 12:33:35;;;;;;;21.67;12.43;;;;;;;;;;5030371;28;25098;-63
2023/08/24 12:36:02;;;;;;;17.55;11.98;;;;;;;;;;5022651;28;25063;-63
2023/08/24 12:38:28;;;;;;;16.48;11.38;;;;;;;;;;5026167;28;25160;-63
2023/08/24 12:40:55;;;;;;;19.90;11.85;;;;;;;;;;5026785;28;25108;-64
2023/08/24 12:43:21;;;;;;;21.75;13.27;;;;;;;;;;5026084;28;25109;-64
2023/08/24 12:45:47;;;;;;;15.30;12.00;;;;;;;;;;5028618;28;25078;-64
2023/08/24 12:48:13;;;;;;;14.35;10.40;;;;;;;;;;5020062;28;25074;-64
2023/08/24 12:50:39;;;;;;;15.27;11.27;;;;;;;;;;5023714;28;25069;-63
2023/08/24 12:53:06;;;;;;;20.63;12.63;;;;;;;;;;5027368;28;25046;-65
2023/08/24 12:55:32;;;;;;;20.33;13.27;;;;;;;;;;5024633;28;25056;-64
2023/08/24 12:57:58;;;;;;;17.83;11.73;;;;;;;;;;5023459;28;25113;-65
2023/08/24 13:00:25;;;;;;;18.73;11.75;;;;;;;;;;5034663;28;25092;-64
2023/08/24 13:02:51;;;;;;;23.10;14.13;;;;;;;;;;5019892;28;25060;-64
2023/08/24 13:05:17;;;;;;;18.48;12.68;;;;;;;;;;5023000;28;25067;-64
2023/08/24 13:07:43;;;;;;;20.20;12.65;;;;;;;;;;5030502;28;25100;-63
2023/08/24 13:10:10;;;;;;;17.17;13.05;;;;;;;;;;5032465;28;25051;-64
2023/08/24 13:12:36;;;;;;;16.98;12.25;;;;;;;;;;5022440;28;25047;-65
2023/08/24 13:15:02;;;;;;;23.48;14.07;;;;;;;;;;5038132;28;25156;-64
2023/08/24 13:17:30;;;;;;;18.38;13.63;;;;;;;;;;5030356;28;25069;-65
2023/08/24 13:19:56;;;;;;;18.98;13.00;;;;;;;;;;5023853;28;25053;-65
2023/08/24 13:22:22;;;;;;;17.27;13.25;;;;;;;;;;5028057;28;25079;-65
2023/08/24 13:24:48;;;;;;;19.55;14.43;;;;;;;;;;5021729;28;25075;-64
2023/08/24 13:27:14;;;;;;;21.02;13.93;;;;;;;;;;5028199;28;25077;-65
2023/08/24 13:29:43;;;;;;;22.67;13.85;;;;;;;;;;5028532;28;25081;-65
2023/08/24 13:32:09;;;;;;;16.98;12.35;;;;;;;;;;5028833;28;25100;-64
2023/08/24 13:34:35;;;;;;;17.35;12.00;;;;;;;;;;5027742;28;25099;-63
2023/08/24 13:37:01;;;;;;;21.42;10.57;;;;;;;;;;5024130;28;25124;-66
2023/08/24 13:39:30;;;;;;;14.80;10.63;;;;;;;;;;5022584;28;25082;-66
2023/08/24 13:41:59;;;;;;;18.58;12.18;;;;;;;;;;5035318;28;25142;-65
2023/08/24 13:44:26;;;;;;;17.10;11.40;;;;;;;;;;5015522;28;25069;-64
2023/08/24 13:46:52;;;;;;;14.98;11.40;;;;;;;;;;5025597;28;25063;-65
2023/08/24 13:49:19;;;;;;;68.63;16.88;;;;;;;;;;5026186;28;25082;-65
2023/08/24 13:51:45;;;;;;;18.50;10.82;;;;;;;;;;5035522;28;25143;-65
2023/08/24 13:54:15;;;;;;;15.35;9.32;;;;;;;;;;5019097;28;25184;-65
2023/08/24 13:56:42;;;;;;;13.13;7.47;;;;;;;;;;5023391;28;25071;-63
2023/08/24 13:59:08;;;;;;;15.23;8.07;;;;;;;;;;5026756;28;25125;-65
2023/08/24 14:01:34;;;;;;;9.20;6.97;;;;;;;;;;5022752;28;25071;-66
2023/08/24 14:04:01;;;;;;;12.52;7.38;;;;;;;;;;5019489;28;25078;-64
2023/08/24 14:06:28;;;;;;;11.25;6.90;;;;;;;;;;5032252;28;25057;-64
2023/08/24 14:08:54;;;;;;;14.23;7.68;;;;;;;;;;5031700;28;25071;-65
2023/08/24 14:11:20;;;;;;;14.70;7.57;;;;;;;;;;5027787;28;25063;-63
2023/08/24 14:13:46;;;;;;;11.27;7.35;;;;;;;;;;5024575;28;25052;-63
2023/08/24 14:16:12;;;;;;;8.63;6.13;;;;;;;;;;5021301;28;25139;-65
2023/08/24 14:18:38;;;;;;;13.95;7.80;;;;;;;;;;5040649;28;25158;-64